Time;durP1;ratioP1;P1;durP2;ratioP2;P2;SDS_P1;SDS_P2;PMS_P1;PMS_P2;Temp;Humidity;BMP_temperature;BMP_pressure;BME280_temperature;BME280_humidity;BME280_pressure;Samples;Min_cycle;Max_cycle;Signal;HPM_P1;HPM_P2
2022/12/16 00:03:20;;;;;;;22.55;12.45;;;;;;;-3.83;100.00;100653.03;10373131;28;20559;-67
2022/12/16 00:08:23;;;;;;;21.43;14.73;;;;;;;-3.74;100.00;100653.16;10372994;28;20065;-69
2022/12/16 00:13:28;;;;;;;13.80;10.15;;;;;;;-3.62;100.00;100648.22;10370861;28;20356;-70
2022/12/16 00:18:31;;;;;;;15.07;11.90;;;;;;;-3.52;100.00;100648.34;10373344;28;20067;-68
2022/12/16 00:23:34;;;;;;;20.27;13.18;;;;;;;-3.45;100.00;100651.84;10372938;28;20126;-70
2022/12/16 00:28:38;;;;;;;17.75;12.38;;;;;;;-3.39;100.00;100639.16;10372857;28;20145;-70
2022/12/16 00:33:41;;;;;;;18.20;13.35;;;;;;;-3.27;100.00;100635.88;10372954;28;20129;-68
2022/12/16 00:38:42;;;;;;;;;;;;;;;-3.21;100.00;100633.41;10373271;28;20063;-69
2022/12/16 00:43:47;;;;;;;10.35;8.52;;;;;;;-3.15;100.00;100633.47;10370496;28;19944;-69
2022/12/16 00:48:49;;;;;;;12.45;11.05;;;;;;;-3.08;100.00;100633.53;10372768;28;20526;-68
2022/12/16 00:53:50;;;;;;;21.47;12.50;;;;;;;-3.04;100.00;100635.28;10372573;28;20605;-69
2022/12/16 00:58:53;;;;;;;16.77;11.30;;;;;;;-2.96;100.00;100638.75;10372430;28;20776;-69
2022/12/16 01:03:56;;;;;;;23.58;13.90;;;;;;;-2.89;100.00;100652.44;10372370;28;20099;-70
2022/12/16 01:08:58;;;;;;;13.80;10.23;;;;;;;-3.01;100.00;100650.63;10372018;28;20102;-68
2022/12/16 01:14:02;;;;;;;17.07;13.20;;;;;;;-3.02;100.00;100654.00;10370193;28;20139;-69
2022/12/16 01:19:04;;;;;;;15.80;13.52;;;;;;;-2.97;100.00;100663.44;10372338;28;20781;-68
2022/12/16 01:24:07;;;;;;;16.92;12.95;;;;;;;-2.91;100.00;100666.91;10372485;28;20068;-69
2022/12/16 01:29:10;;;;;;;;;;;;;;;-2.87;100.00;100679.72;10376540;28;20071;-68
2022/12/16 01:34:13;;;;;;;17.58;11.18;;;;;;;-2.85;100.00;100677.19;10379472;28;19963;-68
2022/12/16 01:39:14;;;;;;;19.27;12.05;;;;;;;-2.83;100.00;100684.88;10379276;28;20531;-68
2022/12/16 01:44:22;;;;;;;16.97;11.87;;;;;;;-2.78;100.00;100688.31;10376682;28;20462;-69
2022/12/16 01:49:32;;;;;;;24.80;12.38;;;;;;;-2.69;100.00;100692.66;10378971;28;20361;-68
2022/12/16 01:54:39;;;;;;;26.13;14.75;;;;;;;-2.72;100.00;100698.59;10378735;28;20637;-68
2022/12/16 01:59:49;;;;;;;16.25;12.35;;;;;;;-2.69;100.00;100702.88;10378729;28;20197;-68
2022/12/16 02:10:11;;;;;;;19.67;11.70;;;;;;;-2.59;100.00;100715.75;10375931;28;20141;-69
2022/12/16 02:15:36;;;;;;;17.23;12.93;;;;;;;-2.59;100.00;100714.91;10377603;28;20087;-69
2022/12/16 02:21:29;;;;;;;14.35;10.73;;;;;;;-2.60;100.00;100724.28;10377937;28;20077;-67
2022/12/16 02:27:19;;;;;;;16.15;12.23;;;;;;;-2.57;100.00;100725.16;10377864;28;20072;-67
2022/12/16 02:32:34;;;;;;;20.25;11.75;;;;;;;-2.52;100.00;100733.72;10377295;28;20488;-68
2022/12/16 02:37:45;;;;;;;17.92;12.52;;;;;;;-2.48;100.00;100735.47;10377069;28;20086;-68
2022/12/16 02:42:55;;;;;;;20.85;14.63;;;;;;;-2.52;100.00;100733.72;10373507;28;20436;-68
2022/12/16 02:47:58;;;;;;;21.63;13.65;;;;;;;-2.51;100.00;100732.88;10376492;28;20063;-69
2022/12/16 02:53:01;;;;;;;17.20;12.50;;;;;;;-2.52;100.00;100733.72;10376441;28;20065;-68
2022/12/16 02:58:16;;;;;;;15.25;11.48;;;;;;;-2.54;100.00;100743.94;10376856;28;20089;-67
2022/12/16 03:03:27;;;;;;;18.80;12.68;;;;;;;-2.51;100.00;100743.09;10375762;28;20660;-67
2022/12/16 03:08:37;;;;;;;21.88;15.95;;;;;;;-2.53;100.00;100742.25;10376221;28;20160;-67
2022/12/16 03:13:45;;;;;;;21.38;13.70;;;;;;;-2.52;100.00;100756.72;10373458;28;20420;-69
2022/12/16 03:18:55;;;;;;;15.60;12.40;;;;;;;-2.53;100.00;100744.78;10375386;28;20511;-68
2022/12/16 03:24:02;;;;;;;24.23;12.57;;;;;;;-2.62;100.00;100748.97;10375106;28;20419;-68
2022/12/16 03:29:11;;;;;;;18.58;13.50;;;;;;;-2.71;100.00;100764.19;10375029;28;20065;-67
2022/12/16 03:34:30;;;;;;;24.70;12.80;;;;;;;-2.78;100.00;100754.72;10374498;28;20533;-68
2022/12/16 03:39:39;;;;;;;23.58;14.05;;;;;;;-2.81;100.00;100757.28;10375263;28;20068;-69
2022/12/16 03:44:43;;;;;;;23.02;14.20;;;;;;;-2.88;100.00;100764.84;10372435;28;20067;-69
2022/12/16 03:49:46;;;;;;;22.63;15.75;;;;;;;-2.97;100.00;100764.75;10373325;28;20523;-68
2022/12/16 03:54:48;;;;;;;29.52;16.90;;;;;;;-3.05;100.00;100766.34;10373589;28;20099;-68
2022/12/16 03:59:50;;;;;;;21.60;15.37;;;;;;;-3.12;100.00;100776.47;10373727;28;20078;-67
2022/12/16 04:04:53;;;;;;;35.67;15.57;;;;;;;-3.13;100.00;100782.44;10374183;28;20408;-68
2022/12/16 04:09:54;;;;;;;25.83;17.40;;;;;;;-3.09;100.00;100790.13;10373391;28;20742;-68
2022/12/16 04:25:38;;;;;;;46.42;17.63;;;;;;;-2.96;100.00;100804.75;10373311;28;20524;-68
2022/12/16 04:30:41;;;;;;;31.77;21.45;;;;;;;-2.82;100.00;100811.72;10373337;28;20125;-68
